sensor_id;sensor_type;location;lat;lon;timestamp;P1;durP1;ratioP1;P2;durP2;ratioP2
66371;SDS011;53168;51.146;17.120;2024-01-15T00:00:42;12.64;;;12.50;;
66371;SDS011;53168;51.146;17.120;2024-01-15T00:03:36;12.36;;;12.07;;
66371;SDS011;53168;51.146;17.120;2024-01-15T00:06:11;11.63;;;11.47;;
66371;SDS011;53168;51.146;17.120;2024-01-15T00:08:45;12.55;;;12.45;;
66371;SDS011;53168;51.146;17.120;2024-01-15T00:11:19;12.04;;;11.98;;
66371;SDS011;53168;51.146;17.120;2024-01-15T00:13:54;12.93;;;12.86;;
66371;SDS011;53168;51.146;17.120;2024-01-15T00:16:28;11.74;;;11.66;;
66371;SDS011;53168;51.146;17.120;2024-01-15T00:19:01;12.24;;;12.14;;
66371;SDS011;53168;51.146;17.120;2024-01-15T00:21:36;11.32;;;11.17;;
66371;SDS011;53168;51.146;17.120;2024-01-15T00:24:09;10.57;;;10.51;;
66371;SDS011;53168;51.146;17.120;2024-01-15T00:26:44;11.31;;;11.18;;
66371;SDS011;53168;51.146;17.120;2024-01-15T00:29:17;10.10;;;10.05;;
66371;SDS011;53168;51.146;17.120;2024-01-15T00:31:51;9.54;;;9.47;;
66371;SDS011;53168;51.146;17.120;2024-01-15T00:34:25;10.50;;;10.35;;
66371;SDS011;53168;51.146;17.120;2024-01-15T00:36:59;9.96;;;9.87;;
66371;SDS011;53168;51.146;17.120;2024-01-15T00:39:36;9.88;;;9.85;;
66371;SDS011;53168;51.146;17.120;2024-01-15T00:42:10;9.84;;;9.73;;
66371;SDS011;53168;51.146;17.120;2024-01-15T00:44:44;9.79;;;9.74;;
66371;SDS011;53168;51.146;17.120;2024-01-15T00:47:19;9.45;;;9.38;;
66371;SDS011;53168;51.146;17.120;2024-01-15T00:57:05;9.91;;;9.44;;
66371;SDS011;53168;51.146;17.120;2024-01-15T00:59:35;9.82;;;9.62;;
66371;SDS011;53168;51.146;17.120;2024-01-15T01:02:05;9.57;;;9.50;;
66371;SDS011;53168;51.146;17.120;2024-01-15T01:04:35;9.37;;;9.27;;
66371;SDS011;53168;51.146;17.120;2024-01-15T01:07:04;10.01;;;9.99;;
66371;SDS011;53168;51.146;17.120;2024-01-15T01:09:34;10.23;;;10.13;;
66371;SDS011;53168;51.146;17.120;2024-01-15T01:12:04;10.54;;;10.37;;
66371;SDS011;53168;51.146;17.120;2024-01-15T01:14:35;9.84;;;9.72;;
66371;SDS011;53168;51.146;17.120;2024-01-15T01:17:04;9.96;;;9.87;;
66371;SDS011;53168;51.146;17.120;2024-01-15T01:19:34;9.63;;;9.51;;
66371;SDS011;53168;51.146;17.120;2024-01-15T01:22:04;9.90;;;9.78;;
66371;SDS011;53168;51.146;17.120;2024-01-15T01:24:33;10.29;;;10.11;;
66371;SDS011;53168;51.146;17.120;2024-01-15T01:27:04;10.10;;;10.08;;
66371;SDS011;53168;51.146;17.120;2024-01-15T01:29:34;10.06;;;9.98;;
66371;SDS011;53168;51.146;17.120;2024-01-15T01:32:05;10.52;;;10.38;;
66371;SDS011;53168;51.146;17.120;2024-01-15T01:34:39;10.83;;;10.74;;
66371;SDS011;53168;51.146;17.120;2024-01-15T01:37:10;10.64;;;10.53;;
66371;SDS011;53168;51.146;17.120;2024-01-15T01:39:40;10.54;;;10.45;;
66371;SDS011;53168;51.146;17.120;2024-01-15T01:42:12;11.19;;;11.10;;
66371;SDS011;53168;51.146;17.120;2024-01-15T01:44:42;10.76;;;10.55;;
66371;SDS011;53168;51.146;17.120;2024-01-15T01:47:11;11.18;;;11.12;;
66371;SDS011;53168;51.146;17.120;2024-01-15T01:49:43;11.06;;;10.95;;
66371;SDS011;53168;51.146;17.120;2024-01-15T01:52:14;10.74;;;10.71;;
66371;SDS011;53168;51.146;17.120;2024-01-15T01:54:44;10.34;;;10.28;;
66371;SDS011;53168;51.146;17.120;2024-01-15T01:57:14;10.50;;;10.40;;
66371;SDS011;53168;51.146;17.120;2024-01-15T01:59:46;10.40;;;10.33;;
66371;SDS011;53168;51.146;17.120;2024-01-15T02:02:16;10.96;;;10.88;;
66371;SDS011;53168;51.146;17.120;2024-01-15T02:04:47;11.48;;;11.31;;
66371;SDS011;53168;51.146;17.120;2024-01-15T02:07:56;10.88;;;10.85;;
66371;SDS011;53168;51.146;17.120;2024-01-15T02:10:26;10.91;;;10.84;;
66371;SDS011;53168;51.146;17.120;2024-01-15T02:12:56;11.54;;;11.47;;
66371;SDS011;53168;51.146;17.120;2024-01-15T02:15:26;11.00;;;10.93;;
66371;SDS011;53168;51.146;17.120;2024-01-15T02:17:57;11.04;;;10.97;;
66371;SDS011;53168;51.146;17.120;2024-01-15T02:20:28;11.33;;;11.09;;
66371;SDS011;53168;51.146;17.120;2024-01-15T02:23:07;10.95;;;10.88;;
66371;SDS011;53168;51.146;17.120;2024-01-15T02:25:40;10.51;;;10.43;;
66371;SDS011;53168;51.146;17.120;2024-01-15T02:28:12;10.74;;;10.63;;
66371;SDS011;53168;51.146;17.120;2024-01-15T02:30:45;10.63;;;10.60;;
66371;SDS011;53168;51.146;17.120;2024-01-15T02:33:15;11.10;;;11.04;;
66371;SDS011;53168;51.146;17.120;2024-01-15T02:35:45;10.21;;;10.14;;
66371;SDS011;53168;51.146;17.120;2024-01-15T02:38:17;11.14;;;11.06;;
66371;SDS011;53168;51.146;17.120;2024-01-15T02:40:47;10.86;;;10.62;;
66371;SDS011;53168;51.146;17.120;2024-01-15T02:43:18;10.68;;;10.57;;
66371;SDS011;53168;51.146;17.120;2024-01-15T02:45:47;11.08;;;11.01;;
66371;SDS011;53168;51.146;17.120;2024-01-15T02:48:17;11.04;;;10.95;;
66371;SDS011;53168;51.146;17.120;2024-01-15T02:50:47;11.35;;;11.18;;
66371;SDS011;53168;51.146;17.120;2024-01-15T02:53:17;11.36;;;11.25;;
66371;SDS011;53168;51.146;17.120;2024-01-15T02:55:47;12.37;;;12.21;;
66371;SDS011;53168;51.146;17.120;2024-01-15T02:58:16;12.53;;;12.44;;
66371;SDS011;53168;51.146;17.120;2024-01-15T03:00:46;12.03;;;11.93;;
66371;SDS011;53168;51.146;17.120;2024-01-15T03:03:16;11.27;;;11.10;;
66371;SDS011;53168;51.146;17.120;2024-01-15T03:05:46;11.59;;;11.51;;
66371;SDS011;53168;51.146;17.120;2024-01-15T03:08:16;10.57;;;10.44;;
66371;SDS011;53168;51.146;17.120;2024-01-15T03:10:46;11.93;;;11.85;;
66371;SDS011;53168;51.146;17.120;2024-01-15T03:13:15;11.39;;;11.38;;
66371;SDS011;53168;51.146;17.120;2024-01-15T03:15:46;10.47;;;10.43;;
66371;SDS011;53168;51.146;17.120;2024-01-15T03:18:16;10.71;;;10.55;;
66371;SDS011;53168;51.146;17.120;2024-01-15T03:20:46;10.16;;;10.05;;
66371;SDS011;53168;51.146;17.120;2024-01-15T03:23:15;9.10;;;9.07;;
66371;SDS011;53168;51.146;17.120;2024-01-15T03:37:09;9.84;;;9.23;;
66371;SDS011;53168;51.146;17.120;2024-01-15T03:39:43;9.22;;;9.06;;
66371;SDS011;53168;51.146;17.120;2024-01-15T03:42:17;8.16;;;8.09;;
66371;SDS011;53168;51.146;17.120;2024-01-15T03:44:51;9.12;;;9.11;;
66371;SDS011;53168;51.146;17.120;2024-01-15T03:47:25;7.99;;;7.96;;
66371;SDS011;53168;51.146;17.120;2024-01-15T03:49:59;8.40;;;8.30;;
66371;SDS011;53168;51.146;17.120;2024-01-15T03:52:34;8.25;;;8.16;;
66371;SDS011;53168;51.146;17.120;2024-01-15T03:55:08;8.11;;;8.03;;
66371;SDS011;53168;51.146;17.120;2024-01-15T03:57:42;8.15;;;8.09;;
66371;SDS011;53168;51.146;17.120;2024-01-15T04:00:16;7.73;;;7.64;;
66371;SDS011;53168;51.146;17.120;2024-01-15T04:02:50;6.82;;;6.75;;
66371;SDS011;53168;51.146;17.120;2024-01-15T04:05:24;7.28;;;7.25;;
66371;SDS011;53168;51.146;17.120;2024-01-15T04:07:58;7.53;;;7.46;;
66371;SDS011;53168;51.146;17.120;2024-01-15T04:10:32;7.12;;;7.08;;
66371;SDS011;53168;51.146;17.120;2024-01-15T04:13:06;7.28;;;7.27;;
66371;SDS011;53168;51.146;17.120;2024-01-15T04:15:40;7.40;;;7.40;;
66371;SDS011;53168;51.146;17.120;2024-01-15T04:18:15;8.15;;;8.09;;
66371;SDS011;53168;51.146;17.120;2024-01-15T04:20:49;7.65;;;7.59;;
66371;SDS011;53168;51.146;17.120;2024-01-15T04:23:23;7.20;;;7.16;;
66371;SDS011;53168;51.146;17.120;2024-01-15T04:25:57;7.40;;;7.36;;
66371;SDS011;53168;51.146;17.120;2024-01-15T04:28:31;7.21;;;7.15;;
66371;SDS011;53168;51.146;17.120;2024-01-15T04:31:05;6.52;;;6.48;;
66371;SDS011;53168;51.146;17.120;2024-01-15T04:33:39;7.10;;;7.04;;
66371;SDS011;53168;51.146;17.120;2024-01-15T04:36:13;6.86;;;6.80;;
66371;SDS011;53168;51.146;17.120;2024-01-15T04:38:48;6.72;;;6.72;;
66371;SDS011;53168;51.146;17.120;2024-01-15T04:41:21;6.43;;;6.42;;
66371;SDS011;53168;51.146;17.120;2024-01-15T04:43:55;6.56;;;6.55;;
66371;SDS011;53168;51.146;17.120;2024-01-15T04:46:30;6.31;;;6.29;;
66371;SDS011;53168;51.146;17.120;2024-01-15T04:49:04;6.32;;;6.30;;
66371;SDS011;53168;51.146;17.120;2024-01-15T04:51:38;6.39;;;6.38;;
66371;SDS011;53168;51.146;17.120;2024-01-15T04:54:12;6.23;;;6.23;;
66371;SDS011;53168;51.146;17.120;2024-01-15T04:56:47;6.38;;;6.38;;
66371;SDS011;53168;51.146;17.120;2024-01-15T04:59:21;7.22;;;7.22;;
66371;SDS011;53168;51.146;17.120;2024-01-15T05:01:54;13.84;;;13.46;;
66371;SDS011;53168;51.146;17.120;2024-01-15T05:04:29;9.08;;;8.91;;
66371;SDS011;53168;51.146;17.120;2024-01-15T05:07:03;8.35;;;8.28;;
66371;SDS011;53168;51.146;17.120;2024-01-15T05:09:38;7.13;;;7.07;;
66371;SDS011;53168;51.146;17.120;2024-01-15T05:12:11;7.74;;;7.69;;
66371;SDS011;53168;51.146;17.120;2024-01-15T05:14:47;8.19;;;8.11;;
66371;SDS011;53168;51.146;17.120;2024-01-15T05:17:21;7.68;;;7.61;;
66371;SDS011;53168;51.146;17.120;2024-01-15T05:19:56;7.19;;;7.14;;
66371;SDS011;53168;51.146;17.120;2024-01-15T05:22:30;8.98;;;8.89;;
66371;SDS011;53168;51.146;17.120;2024-01-15T05:25:04;7.85;;;7.83;;
66371;SDS011;53168;51.146;17.120;2024-01-15T05:27:39;8.14;;;8.13;;
66371;SDS011;53168;51.146;17.120;2024-01-15T05:30:13;7.04;;;7.01;;
66371;SDS011;53168;51.146;17.120;2024-01-15T05:32:49;8.01;;;7.97;;
66371;SDS011;53168;51.146;17.120;2024-01-15T05:35:23;7.67;;;7.62;;
66371;SDS011;53168;51.146;17.120;2024-01-15T05:37:57;6.75;;;6.71;;
66371;SDS011;53168;51.146;17.120;2024-01-15T05:40:32;7.08;;;7.06;;
66371;SDS011;53168;51.146;17.120;2024-01-15T05:43:05;6.39;;;6.39;;
66371;SDS011;53168;51.146;17.120;2024-01-15T05:45:42;6.50;;;6.50;;
66371;SDS011;53168;51.146;17.120;2024-01-15T05:48:16;6.25;;;6.25;;
66371;SDS011;53168;51.146;17.120;2024-01-15T05:50:50;6.42;;;6.40;;
66371;SDS011;53168;51.146;17.120;2024-01-15T05:53:24;6.49;;;6.46;;
66371;SDS011;53168;51.146;17.120;2024-01-15T05:55:59;6.56;;;6.55;;
66371;SDS011;53168;51.146;17.120;2024-01-15T05:58:32;6.35;;;6.35;;
66371;SDS011;53168;51.146;17.120;2024-01-15T06:01:06;6.54;;;6.51;;
66371;SDS011;53168;51.146;17.120;2024-01-15T06:03:40;7.47;;;7.46;;
66371;SDS011;53168;51.146;17.120;2024-01-15T06:06:14;8.16;;;8.16;;
66371;SDS011;53168;51.146;17.120;2024-01-15T06:08:48;7.92;;;7.86;;
66371;SDS011;53168;51.146;17.120;2024-01-15T06:11:22;10.07;;;9.98;;
66371;SDS011;53168;51.146;17.120;2024-01-15T06:14:01;7.31;;;7.25;;
66371;SDS011;53168;51.146;17.120;2024-01-15T06:16:35;7.34;;;7.29;;
66371;SDS011;53168;51.146;17.120;2024-01-15T06:19:09;7.62;;;7.54;;
66371;SDS011;53168;51.146;17.120;2024-01-15T06:21:43;7.02;;;6.97;;
66371;SDS011;53168;51.146;17.120;2024-01-15T06:24:17;7.59;;;7.49;;
66371;SDS011;53168;51.146;17.120;2024-01-15T06:26:51;8.70;;;8.60;;
66371;SDS011;53168;51.146;17.120;2024-01-15T06:29:26;10.01;;;9.95;;
66371;SDS011;53168;51.146;17.120;2024-01-15T06:32:00;10.84;;;10.77;;
66371;SDS011;53168;51.146;17.120;2024-01-15T06:34:35;8.44;;;8.31;;
66371;SDS011;53168;51.146;17.120;2024-01-15T06:37:09;9.39;;;9.20;;
66371;SDS011;53168;51.146;17.120;2024-01-15T06:39:43;9.29;;;9.13;;
66371;SDS011;53168;51.146;17.120;2024-01-15T06:42:17;9.14;;;9.05;;
66371;SDS011;53168;51.146;17.120;2024-01-15T06:44:52;8.76;;;8.74;;
66371;SDS011;53168;51.146;17.120;2024-01-15T06:47:25;8.50;;;8.49;;
66371;SDS011;53168;51.146;17.120;2024-01-15T06:50:02;7.97;;;7.96;;
66371;SDS011;53168;51.146;17.120;2024-01-15T06:52:37;7.92;;;7.85;;
66371;SDS011;53168;51.146;17.120;2024-01-15T06:55:10;8.46;;;8.37;;
66371;SDS011;53168;51.146;17.120;2024-01-15T06:57:45;6.91;;;6.78;;
66371;SDS011;53168;51.146;17.120;2024-01-15T07:00:19;6.94;;;6.90;;
66371;SDS011;53168;51.146;17.120;2024-01-15T07:02:52;7.16;;;7.10;;
66371;SDS011;53168;51.146;17.120;2024-01-15T07:05:26;7.42;;;7.35;;
66371;SDS011;53168;51.146;17.120;2024-01-15T07:08:01;7.22;;;7.20;;
66371;SDS011;53168;51.146;17.120;2024-01-15T07:10:35;7.85;;;7.81;;
66371;SDS011;53168;51.146;17.120;2024-01-15T07:13:09;9.77;;;9.69;;
66371;SDS011;53168;51.146;17.120;2024-01-15T07:15:43;9.08;;;9.06;;
66371;SDS011;53168;51.146;17.120;2024-01-15T07:18:17;8.76;;;8.75;;
66371;SDS011;53168;51.146;17.120;2024-01-15T07:20:51;9.00;;;8.99;;
66371;SDS011;53168;51.146;17.120;2024-01-15T07:23:25;7.45;;;7.43;;
66371;SDS011;53168;51.146;17.120;2024-01-15T07:25:59;7.88;;;7.87;;
66371;SDS011;53168;51.146;17.120;2024-01-15T07:28:34;8.11;;;8.00;;
66371;SDS011;53168;51.146;17.120;2024-01-15T07:31:09;8.51;;;8.46;;
66371;SDS011;53168;51.146;17.120;2024-01-15T07:33:45;8.90;;;8.89;;
66371;SDS011;53168;51.146;17.120;2024-01-15T07:36:19;7.97;;;7.90;;
66371;SDS011;53168;51.146;17.120;2024-01-15T07:38:53;7.76;;;7.72;;
66371;SDS011;53168;51.146;17.120;2024-01-15T07:41:27;7.96;;;7.84;;
66371;SDS011;53168;51.146;17.120;2024-01-15T07:44:01;8.08;;;8.02;;
66371;SDS011;53168;51.146;17.120;2024-01-15T07:46:36;8.81;;;8.77;;
66371;SDS011;53168;51.146;17.120;2024-01-15T07:49:10;8.84;;;8.72;;
66371;SDS011;53168;51.146;17.120;2024-01-15T07:51:44;9.59;;;9.31;;
66371;SDS011;53168;51.146;17.120;2024-01-15T07:54:18;8.81;;;8.60;;
66371;SDS011;53168;51.146;17.120;2024-01-15T07:56:56;8.39;;;8.15;;
66371;SDS011;53168;51.146;17.120;2024-01-15T07:59:32;7.93;;;7.66;;
66371;SDS011;53168;51.146;17.120;2024-01-15T08:02:07;8.35;;;8.15;;
66371;SDS011;53168;51.146;17.120;2024-01-15T08:04:40;7.31;;;7.15;;
66371;SDS011;53168;51.146;17.120;2024-01-15T08:07:15;8.87;;;8.73;;
66371;SDS011;53168;51.146;17.120;2024-01-15T08:09:49;10.30;;;10.07;;
66371;SDS011;53168;51.146;17.120;2024-01-15T08:12:26;9.73;;;9.57;;
66371;SDS011;53168;51.146;17.120;2024-01-15T08:15:00;8.93;;;8.84;;
66371;SDS011;53168;51.146;17.120;2024-01-15T08:17:35;8.56;;;8.52;;
66371;SDS011;53168;51.146;17.120;2024-01-15T08:20:09;8.67;;;8.67;;
66371;SDS011;53168;51.146;17.120;2024-01-15T08:22:45;7.00;;;6.96;;
66371;SDS011;53168;51.146;17.120;2024-01-15T08:25:20;7.72;;;7.69;;
66371;SDS011;53168;51.146;17.120;2024-01-15T08:27:59;7.10;;;7.05;;
66371;SDS011;53168;51.146;17.120;2024-01-15T08:30:34;6.94;;;6.83;;
66371;SDS011;53168;51.146;17.120;2024-01-15T08:33:08;6.65;;;6.58;;
66371;SDS011;53168;51.146;17.120;2024-01-15T08:35:50;6.87;;;6.75;;
66371;SDS011;53168;51.146;17.120;2024-01-15T08:38:25;7.12;;;6.99;;
66371;SDS011;53168;51.146;17.120;2024-01-15T08:41:00;8.55;;;8.43;;
66371;SDS011;53168;51.146;17.120;2024-01-15T08:43:34;8.49;;;8.40;;
66371;SDS011;53168;51.146;17.120;2024-01-15T08:46:08;8.12;;;8.03;;
66371;SDS011;53168;51.146;17.120;2024-01-15T08:48:42;7.26;;;7.21;;
66371;SDS011;53168;51.146;17.120;2024-01-15T08:51:16;6.36;;;6.31;;
66371;SDS011;53168;51.146;17.120;2024-01-15T08:53:50;6.83;;;6.72;;
66371;SDS011;53168;51.146;17.120;2024-01-15T08:56:24;5.94;;;5.82;;
66371;SDS011;53168;51.146;17.120;2024-01-15T09:11:36;6.05;;;5.89;;
66371;SDS011;53168;51.146;17.120;2024-01-15T09:14:09;6.51;;;6.38;;
66371;SDS011;53168;51.146;17.120;2024-01-15T09:16:47;6.86;;;6.81;;
66371;SDS011;53168;51.146;17.120;2024-01-15T09:19:21;5.79;;;5.72;;
66371;SDS011;53168;51.146;17.120;2024-01-15T09:21:55;5.89;;;5.84;;
66371;SDS011;53168;51.146;17.120;2024-01-15T09:24:33;5.31;;;5.25;;
66371;SDS011;53168;51.146;17.120;2024-01-15T09:27:07;5.20;;;5.07;;
66371;SDS011;53168;51.146;17.120;2024-01-15T09:29:42;5.30;;;5.18;;
66371;SDS011;53168;51.146;17.120;2024-01-15T09:32:16;5.20;;;5.06;;
66371;SDS011;53168;51.146;17.120;2024-01-15T09:34:49;5.65;;;5.50;;
66371;SDS011;53168;51.146;17.120;2024-01-15T09:37:24;5.70;;;5.54;;
66371;SDS011;53168;51.146;17.120;2024-01-15T09:40:15;5.52;;;5.37;;
66371;SDS011;53168;51.146;17.120;2024-01-15T09:42:50;5.51;;;5.35;;
66371;SDS011;53168;51.146;17.120;2024-01-15T10:02:55;5.83;;;5.29;;
66371;SDS011;53168;51.146;17.120;2024-01-15T10:05:28;5.20;;;4.97;;
66371;SDS011;53168;51.146;17.120;2024-01-15T10:07:58;5.31;;;5.18;;
66371;SDS011;53168;51.146;17.120;2024-01-15T10:10:32;5.75;;;5.61;;
66371;SDS011;53168;51.146;17.120;2024-01-15T10:13:04;5.36;;;5.19;;
66371;SDS011;53168;51.146;17.120;2024-01-15T10:15:35;5.53;;;5.43;;
66371;SDS011;53168;51.146;17.120;2024-01-15T10:18:06;5.20;;;5.04;;
66371;SDS011;53168;51.146;17.120;2024-01-15T10:20:36;5.35;;;5.18;;
66371;SDS011;53168;51.146;17.120;2024-01-15T10:23:07;4.94;;;4.85;;
66371;SDS011;53168;51.146;17.120;2024-01-15T10:25:37;5.04;;;4.94;;
66371;SDS011;53168;51.146;17.120;2024-01-15T10:28:16;4.94;;;4.85;;
66371;SDS011;53168;51.146;17.120;2024-01-15T10:30:55;4.78;;;4.74;;
66371;SDS011;53168;51.146;17.120;2024-01-15T10:33:31;4.71;;;4.64;;
66371;SDS011;53168;51.146;17.120;2024-01-15T10:36:02;5.07;;;4.89;;
66371;SDS011;53168;51.146;17.120;2024-01-15T10:38:38;5.05;;;4.85;;
66371;SDS011;53168;51.146;17.120;2024-01-15T10:41:09;4.77;;;4.56;;
66371;SDS011;53168;51.146;17.120;2024-01-15T10:43:42;5.37;;;5.18;;
66371;SDS011;53168;51.146;17.120;2024-01-15T10:46:12;4.80;;;4.64;;
66371;SDS011;53168;51.146;17.120;2024-01-15T10:48:42;5.12;;;4.92;;
66371;SDS011;53168;51.146;17.120;2024-01-15T10:51:15;5.17;;;5.04;;
66371;SDS011;53168;51.146;17.120;2024-01-15T10:53:46;5.17;;;5.05;;
66371;SDS011;53168;51.146;17.120;2024-01-15T10:56:18;4.72;;;4.59;;
66371;SDS011;53168;51.146;17.120;2024-01-15T10:58:50;4.61;;;4.48;;
66371;SDS011;53168;51.146;17.120;2024-01-15T11:01:25;4.91;;;4.79;;
66371;SDS011;53168;51.146;17.120;2024-01-15T11:03:58;5.57;;;5.44;;
66371;SDS011;53168;51.146;17.120;2024-01-15T11:06:29;4.79;;;4.63;;
66371;SDS011;53168;51.146;17.120;2024-01-15T11:09:13;5.13;;;4.98;;
66371;SDS011;53168;51.146;17.120;2024-01-15T11:11:45;5.60;;;5.47;;
66371;SDS011;53168;51.146;17.120;2024-01-15T11:17:04;4.93;;;4.84;;
66371;SDS011;53168;51.146;17.120;2024-01-15T11:19:38;4.68;;;4.60;;
66371;SDS011;53168;51.146;17.120;2024-01-15T11:25:18;4.65;;;4.52;;
66371;SDS011;53168;51.146;17.120;2024-01-15T11:27:50;4.73;;;4.59;;
66371;SDS011;53168;51.146;17.120;2024-01-15T11:30:25;5.36;;;5.19;;
66371;SDS011;53168;51.146;17.120;2024-01-15T11:32:55;5.14;;;4.90;;
66371;SDS011;53168;51.146;17.120;2024-01-15T11:35:26;4.69;;;4.55;;
66371;SDS011;53168;51.146;17.120;2024-01-15T11:38:28;5.16;;;5.01;;
66371;SDS011;53168;51.146;17.120;2024-01-15T11:40:58;4.79;;;4.69;;
66371;SDS011;53168;51.146;17.120;2024-01-15T11:43:29;4.41;;;4.31;;
66371;SDS011;53168;51.146;17.120;2024-01-15T11:46:00;4.77;;;4.57;;
66371;SDS011;53168;51.146;17.120;2024-01-15T11:48:34;5.00;;;4.72;;
66371;SDS011;53168;51.146;17.120;2024-01-15T11:51:13;5.16;;;4.87;;
66371;SDS011;53168;51.146;17.120;2024-01-15T11:53:49;4.79;;;4.62;;
66371;SDS011;53168;51.146;17.120;2024-01-15T11:56:30;4.99;;;4.77;;
66371;SDS011;53168;51.146;17.120;2024-01-15T11:59:01;4.76;;;4.57;;
66371;SDS011;53168;51.146;17.120;2024-01-15T12:01:32;4.88;;;4.75;;
66371;SDS011;53168;51.146;17.120;2024-01-15T12:04:03;4.98;;;4.82;;
66371;SDS011;53168;51.146;17.120;2024-01-15T12:06:33;4.92;;;4.78;;
66371;SDS011;53168;51.146;17.120;2024-01-15T12:09:07;5.17;;;4.97;;
66371;SDS011;53168;51.146;17.120;2024-01-15T12:11:37;5.00;;;4.88;;
66371;SDS011;53168;51.146;17.120;2024-01-15T12:14:27;5.79;;;5.64;;
66371;SDS011;53168;51.146;17.120;2024-01-15T12:16:57;5.74;;;5.61;;
66371;SDS011;53168;51.146;17.120;2024-01-15T12:19:31;5.46;;;5.34;;
66371;SDS011;53168;51.146;17.120;2024-01-15T12:22:02;5.97;;;5.77;;
66371;SDS011;53168;51.146;17.120;2024-01-15T12:24:32;5.70;;;5.45;;
66371;SDS011;53168;51.146;17.120;2024-01-15T12:27:03;5.90;;;5.58;;
66371;SDS011;53168;51.146;17.120;2024-01-15T12:29:33;5.63;;;5.34;;
66371;SDS011;53168;51.146;17.120;2024-01-15T12:32:03;5.89;;;5.66;;
66371;SDS011;53168;51.146;17.120;2024-01-15T12:34:35;5.52;;;5.23;;
66371;SDS011;53168;51.146;17.120;2024-01-15T12:37:07;5.58;;;5.44;;
66371;SDS011;53168;51.146;17.120;2024-01-15T12:39:38;5.78;;;5.62;;
66371;SDS011;53168;51.146;17.120;2024-01-15T12:42:11;5.06;;;4.92;;
66371;SDS011;53168;51.146;17.120;2024-01-15T12:44:42;5.06;;;4.89;;
66371;SDS011;53168;51.146;17.120;2024-01-15T12:47:14;5.70;;;5.56;;
66371;SDS011;53168;51.146;17.120;2024-01-15T12:49:47;6.48;;;6.27;;
66371;SDS011;53168;51.146;17.120;2024-01-15T12:52:23;9.21;;;8.71;;
66371;SDS011;53168;51.146;17.120;2024-01-15T12:54:57;8.88;;;8.42;;
66371;SDS011;53168;51.146;17.120;2024-01-15T12:57:27;8.54;;;8.08;;
66371;SDS011;53168;51.146;17.120;2024-01-15T12:59:57;6.94;;;6.55;;
66371;SDS011;53168;51.146;17.120;2024-01-15T13:02:27;8.03;;;7.70;;
66371;SDS011;53168;51.146;17.120;2024-01-15T13:04:58;6.87;;;6.69;;
66371;SDS011;53168;51.146;17.120;2024-01-15T13:07:31;8.20;;;7.82;;
66371;SDS011;53168;51.146;17.120;2024-01-15T13:10:01;6.77;;;6.45;;
66371;SDS011;53168;51.146;17.120;2024-01-15T13:12:32;6.26;;;6.18;;
66371;SDS011;53168;51.146;17.120;2024-01-15T13:15:03;6.03;;;5.96;;
66371;SDS011;53168;51.146;17.120;2024-01-15T13:17:38;5.92;;;5.84;;
66371;SDS011;53168;51.146;17.120;2024-01-15T13:20:11;5.43;;;5.37;;
66371;SDS011;53168;51.146;17.120;2024-01-15T13:22:41;5.70;;;5.51;;
66371;SDS011;53168;51.146;17.120;2024-01-15T13:25:13;5.23;;;5.05;;
66371;SDS011;53168;51.146;17.120;2024-01-15T13:27:43;5.11;;;4.95;;
66371;SDS011;53168;51.146;17.120;2024-01-15T13:30:13;5.27;;;5.12;;
66371;SDS011;53168;51.146;17.120;2024-01-15T13:32:44;4.76;;;4.61;;
66371;SDS011;53168;51.146;17.120;2024-01-15T13:35:14;5.11;;;5.04;;
66371;SDS011;53168;51.146;17.120;2024-01-15T13:37:44;5.81;;;5.70;;
66371;SDS011;53168;51.146;17.120;2024-01-15T13:40:15;6.22;;;6.17;;
66371;SDS011;53168;51.146;17.120;2024-01-15T13:42:47;5.75;;;5.75;;
66371;SDS011;53168;51.146;17.120;2024-01-15T13:45:19;5.24;;;5.21;;
66371;SDS011;53168;51.146;17.120;2024-01-15T13:47:51;5.55;;;5.49;;
66371;SDS011;53168;51.146;17.120;2024-01-15T13:50:21;4.95;;;4.88;;
66371;SDS011;53168;51.146;17.120;2024-01-15T13:52:53;5.71;;;5.64;;
66371;SDS011;53168;51.146;17.120;2024-01-15T13:55:23;5.60;;;5.51;;
66371;SDS011;53168;51.146;17.120;2024-01-15T13:57:53;10.59;;;10.26;;
66371;SDS011;53168;51.146;17.120;2024-01-15T14:00:23;13.03;;;12.12;;
66371;SDS011;53168;51.146;17.120;2024-01-15T14:02:53;10.80;;;10.10;;
66371;SDS011;53168;51.146;17.120;2024-01-15T14:05:24;8.32;;;8.11;;
66371;SDS011;53168;51.146;17.120;2024-01-15T14:07:54;6.67;;;6.60;;
66371;SDS011;53168;51.146;17.120;2024-01-15T14:10:26;6.42;;;6.29;;
66371;SDS011;53168;51.146;17.120;2024-01-15T14:12:55;7.19;;;7.09;;
66371;SDS011;53168;51.146;17.120;2024-01-15T14:15:25;5.61;;;5.51;;
66371;SDS011;53168;51.146;17.120;2024-01-15T14:17:55;5.31;;;5.25;;
66371;SDS011;53168;51.146;17.120;2024-01-15T14:20:26;5.60;;;5.54;;
66371;SDS011;53168;51.146;17.120;2024-01-15T14:22:56;5.35;;;5.28;;
66371;SDS011;53168;51.146;17.120;2024-01-15T14:25:26;6.09;;;6.05;;
66371;SDS011;53168;51.146;17.120;2024-01-15T14:27:56;4.97;;;4.93;;
66371;SDS011;53168;51.146;17.120;2024-01-15T14:30:26;4.66;;;4.59;;
66371;SDS011;53168;51.146;17.120;2024-01-15T14:32:56;5.93;;;5.85;;
66371;SDS011;53168;51.146;17.120;2024-01-15T14:35:26;6.41;;;6.39;;
66371;SDS011;53168;51.146;17.120;2024-01-15T14:37:55;5.53;;;5.49;;
66371;SDS011;53168;51.146;17.120;2024-01-15T14:40:26;5.49;;;5.41;;
66371;SDS011;53168;51.146;17.120;2024-01-15T14:42:57;4.88;;;4.76;;
66371;SDS011;53168;51.146;17.120;2024-01-15T14:45:27;5.25;;;5.19;;
66371;SDS011;53168;51.146;17.120;2024-01-15T14:47:57;4.54;;;4.54;;
66371;SDS011;53168;51.146;17.120;2024-01-15T14:50:27;4.70;;;4.66;;
66371;SDS011;53168;51.146;17.120;2024-01-15T14:52:57;5.39;;;5.26;;
66371;SDS011;53168;51.146;17.120;2024-01-15T14:55:27;5.50;;;5.44;;
66371;SDS011;53168;51.146;17.120;2024-01-15T14:57:57;6.76;;;6.67;;
66371;SDS011;53168;51.146;17.120;2024-01-15T15:00:27;5.98;;;5.88;;
66371;SDS011;53168;51.146;17.120;2024-01-15T15:02:57;5.86;;;5.79;;
66371;SDS011;53168;51.146;17.120;2024-01-15T15:05:27;5.53;;;5.50;;
66371;SDS011;53168;51.146;17.120;2024-01-15T15:07:57;5.65;;;5.61;;
66371;SDS011;53168;51.146;17.120;2024-01-15T15:10:27;5.01;;;4.94;;
66371;SDS011;53168;51.146;17.120;2024-01-15T15:12:57;5.81;;;5.75;;
66371;SDS011;53168;51.146;17.120;2024-01-15T15:15:27;5.59;;;5.57;;
66371;SDS011;53168;51.146;17.120;2024-01-15T15:18:00;4.76;;;4.74;;
66371;SDS011;53168;51.146;17.120;2024-01-15T15:21:21;5.34;;;5.26;;
66371;SDS011;53168;51.146;17.120;2024-01-15T15:23:51;5.85;;;5.72;;
66371;SDS011;53168;51.146;17.120;2024-01-15T15:26:21;6.06;;;5.87;;
66371;SDS011;53168;51.146;17.120;2024-01-15T15:28:51;6.50;;;6.25;;
66371;SDS011;53168;51.146;17.120;2024-01-15T15:31:26;6.48;;;6.25;;
66371;SDS011;53168;51.146;17.120;2024-01-15T15:33:57;6.49;;;6.23;;
66371;SDS011;53168;51.146;17.120;2024-01-15T15:36:28;7.75;;;7.45;;
66371;SDS011;53168;51.146;17.120;2024-01-15T15:38:58;6.83;;;6.66;;
66371;SDS011;53168;51.146;17.120;2024-01-15T15:41:28;8.06;;;7.91;;
66371;SDS011;53168;51.146;17.120;2024-01-15T15:43:58;7.17;;;7.02;;
66371;SDS011;53168;51.146;17.120;2024-01-15T15:46:28;7.47;;;7.25;;
66371;SDS011;53168;51.146;17.120;2024-01-15T15:48:58;5.32;;;5.21;;
66371;SDS011;53168;51.146;17.120;2024-01-15T15:51:33;5.46;;;5.41;;
66371;SDS011;53168;51.146;17.120;2024-01-15T15:54:04;5.01;;;4.98;;
66371;SDS011;53168;51.146;17.120;2024-01-15T15:56:34;5.46;;;5.38;;